Time;durP1;ratioP1;P1;durP2;ratioP2;P2;SDS_P1;SDS_P2;PMS_P1;PMS_P2;Temp;Humidity;BMP_temperature;BMP_pressure;BME280_temperature;BME280_humidity;BME280_pressure;Samples;Min_cycle;Max_cycle;Signal;HPM_P1;HPM_P2
2023/08/30 00:01:59;;;;;;;;;;;22.70;99.90;;;;;;5115704;28;19951;-70
2023/08/30 00:04:25;;;;;;;;;;;22.60;99.90;;;;;;5115885;28;19972;-70
2023/08/30 00:06:50;;;;;;;;;;;22.70;99.90;;;;;;5115907;28;19915;-70
2023/08/30 00:09:16;;;;;;;;;;;22.70;99.90;;;;;;5115660;28;20003;-70
2023/08/30 00:11:42;;;;;;;;;;;22.70;99.90;;;;;;5116231;28;19914;-70
2023/08/30 00:14:09;;;;;;;;;;;22.60;99.90;;;;;;5097339;28;19915;-70
2023/08/30 00:16:35;;;;;;;;;;;22.60;99.90;;;;;;5115549;28;19908;-72
2023/08/30 00:19:01;;;;;;;;;;;22.60;99.90;;;;;;5115319;28;19962;-70
2023/08/30 00:21:28;;;;;;;;;;;22.60;99.90;;;;;;5097167;28;19911;-70
2023/08/30 00:23:53;;;;;;;;;;;22.50;99.90;;;;;;5115286;28;19961;-70
2023/08/30 00:26:20;;;;;;;;;;;22.50;99.90;;;;;;5115319;28;19919;-70
2023/08/30 00:28:46;;;;;;;;;;;22.50;99.90;;;;;;5097848;28;20409;-70
2023/08/30 00:31:12;;;;;;;;;;;22.50;99.90;;;;;;5115121;28;19908;-70
2023/08/30 00:33:38;;;;;;;;;;;22.50;99.90;;;;;;5115532;28;19915;-70
2023/08/30 00:36:04;;;;;;;;;;;22.30;99.90;;;;;;5114782;28;19919;-70
2023/08/30 00:38:32;;;;;;;;;;;22.30;99.90;;;;;;5115548;28;19956;-70
2023/08/30 00:40:58;;;;;;;;;;;22.30;99.90;;;;;;5114893;28;19908;-71
2023/08/30 00:43:24;;;;;;;;;;;22.20;99.90;;;;;;5096737;28;19912;-71
2023/08/30 00:45:51;;;;;;;;;;;22.30;99.90;;;;;;5114743;28;20367;-70
2023/08/30 00:48:18;;;;;;;;;;;22.30;99.90;;;;;;5096512;28;20386;-70
2023/08/30 00:50:44;;;;;;;;;;;22.30;99.90;;;;;;5114682;28;20014;-70
2023/08/30 00:53:10;;;;;;;;;;;22.40;99.90;;;;;;5114611;28;19958;-70
2023/08/30 00:55:36;;;;;;;;;;;22.40;99.90;;;;;;5114697;28;20006;-70
2023/08/30 00:58:03;;;;;;;;;;;22.30;99.90;;;;;;5114585;28;19914;-70
2023/08/30 01:00:31;;;;;;;;;;;22.30;99.90;;;;;;5114790;28;20344;-71
2023/08/30 01:02:58;;;;;;;;;;;22.40;99.90;;;;;;5095938;28;19976;-73
2023/08/30 01:05:24;;;;;;;;;;;22.30;99.90;;;;;;5114494;28;19924;-71
2023/08/30 01:07:53;;;;;;;;;;;22.30;99.90;;;;;;5114673;28;20275;-69
2023/08/30 01:10:20;;;;;;;;;;;22.30;99.90;;;;;;5114334;28;20264;-68
2023/08/30 01:12:47;;;;;;;;;;;22.30;99.90;;;;;;5115008;28;19914;-71
2023/08/30 01:15:19;;;;;;;;;;;22.20;99.90;;;;;;5114834;28;19930;-72
2023/08/30 01:17:47;;;;;;;;;;;22.20;99.90;;;;;;5095954;28;19915;-71
2023/08/30 01:20:15;;;;;;;;;;;22.20;99.90;;;;;;5114216;28;19908;-71
2023/08/30 01:22:55;;;;;;;;;;;22.10;99.90;;;;;;5114241;28;20383;-70
2023/08/30 01:25:39;;;;;;;;;;;22.20;99.90;;;;;;5114890;28;19916;-70
2023/08/30 01:28:06;;;;;;;;;;;22.10;99.90;;;;;;5095997;28;19913;-71
2023/08/30 01:30:33;;;;;;;;;;;22.20;99.90;;;;;;5096593;28;19956;-70
2023/08/30 01:33:00;;;;;;;;;;;22.20;99.90;;;;;;5114227;28;20421;-71
2023/08/30 01:35:30;;;;;;;;;;;22.20;99.90;;;;;;5113959;28;20406;-72
2023/08/30 01:37:57;;;;;;;;;;;22.20;99.90;;;;;;5114505;28;19919;-70
2023/08/30 01:40:23;;;;;;;;;;;22.20;99.90;;;;;;5095857;28;19907;-71
2023/08/30 01:42:50;;;;;;;;;;;22.10;99.90;;;;;;5095760;28;19934;-70
2023/08/30 01:45:17;;;;;;;;;;;22.10;99.90;;;;;;5114047;28;19931;-70
2023/08/30 01:47:43;;;;;;;;;;;22.10;99.90;;;;;;5114142;28;20004;-70
2023/08/30 01:50:10;;;;;;;;;;;22.00;99.90;;;;;;5113864;28;19908;-70
2023/08/30 01:52:43;;;;;;;;;;;21.90;99.90;;;;;;5114192;28;20386;-71
2023/08/30 01:55:10;;;;;;;;;;;21.90;99.90;;;;;;5095896;28;19908;-71
2023/08/30 01:57:35;;;;;;;;;;;22.00;99.90;;;;;;5114563;28;20002;-70
2023/08/30 02:00:01;;;;;;;;;;;21.90;99.90;;;;;;5114007;28;19954;-70
2023/08/30 02:02:30;;;;;;;;;;;21.90;99.90;;;;;;5114243;28;20344;-71
2023/08/30 02:04:56;;;;;;;;;;;21.80;99.90;;;;;;5095491;28;19915;-70
2023/08/30 02:07:42;;;;;;;;;;;21.80;99.90;;;;;;5114027;28;19907;-67
2023/08/30 02:10:10;;;;;;;;;;;21.80;99.90;;;;;;5113452;28;19908;-71
2023/08/30 02:12:55;;;;;;;;;;;21.80;99.90;;;;;;5114412;28;19915;-70
2023/08/30 02:15:24;;;;;;;;;;;21.80;99.90;;;;;;5113136;28;19953;-70
2023/08/30 02:17:50;;;;;;;;;;;21.80;99.90;;;;;;5113827;28;19964;-70
2023/08/30 02:20:17;;;;;;;;;;;21.70;99.90;;;;;;5115715;28;20276;-70
2023/08/30 02:22:43;;;;;;;;;;;21.70;99.90;;;;;;5117692;28;20276;-70
2023/08/30 02:25:10;;;;;;;;;;;21.70;99.90;;;;;;5117684;28;19916;-70
2023/08/30 02:27:35;;;;;;;;;;;21.70;99.90;;;;;;5118212;28;20316;-70
2023/08/30 02:30:02;;;;;;;;;;;21.70;99.90;;;;;;5117660;28;20000;-70
2023/08/30 02:32:29;;;;;;;;;;;21.60;99.90;;;;;;5099260;28;19924;-71
2023/08/30 02:34:56;;;;;;;;;;;21.60;99.90;;;;;;5098900;28;19908;-70
2023/08/30 02:37:22;;;;;;;;;;;21.70;99.90;;;;;;5117345;28;20390;-70
2023/08/30 02:39:48;;;;;;;;;;;21.70;99.90;;;;;;5117433;28;19911;-70
2023/08/30 02:42:14;;;;;;;;;;;21.70;99.90;;;;;;5117700;28;19907;-70
2023/08/30 02:44:40;;;;;;;;;;;21.60;99.90;;;;;;5117219;28;19916;-71
2023/08/30 02:47:07;;;;;;;;;;;21.60;99.90;;;;;;5118049;28;19955;-70
2023/08/30 02:49:33;;;;;;;;;;;21.60;99.90;;;;;;5098878;28;19908;-70
2023/08/30 02:51:59;;;;;;;;;;;21.60;99.90;;;;;;5098848;28;19907;-70
2023/08/30 02:54:26;;;;;;;;;;;21.60;99.90;;;;;;5117191;28;20355;-70
2023/08/30 02:56:51;;;;;;;;;;;21.50;99.90;;;;;;5117152;28;19968;-71
2023/08/30 02:59:18;;;;;;;;;;;21.50;99.90;;;;;;5117029;28;19912;-71
2023/08/30 03:01:46;;;;;;;;;;;21.50;99.90;;;;;;5099498;28;19988;-70
2023/08/30 03:04:12;;;;;;;;;;;21.50;99.90;;;;;;5098266;28;19912;-70
2023/08/30 03:06:38;;;;;;;;;;;21.50;99.90;;;;;;5117019;28;20276;-71
2023/08/30 03:09:06;;;;;;;;;;;21.50;99.90;;;;;;5117423;28;19915;-71
2023/08/30 03:11:32;;;;;;;;;;;21.50;99.90;;;;;;5116887;28;20302;-70
2023/08/30 03:13:59;;;;;;;;;;;21.50;99.90;;;;;;5117306;28;20355;-70
2023/08/30 03:16:26;;;;;;;;;;;21.50;99.90;;;;;;5116852;28;19908;-71
2023/08/30 03:18:52;;;;;;;;;;;21.40;99.90;;;;;;5117253;28;19955;-71
2023/08/30 03:21:18;;;;;;;;;;;21.40;99.90;;;;;;5116549;28;19907;-70
2023/08/30 03:23:43;;;;;;;;;;;21.40;99.90;;;;;;5098048;28;20399;-71
2023/08/30 03:26:13;;;;;;;;;;;21.40;99.90;;;;;;5116536;28;19916;-70
2023/08/30 03:28:40;;;;;;;;;;;21.40;99.90;;;;;;5117094;28;19907;-71
2023/08/30 03:31:25;;;;;;;;;;;21.40;99.90;;;;;;5097525;28;19908;-70
2023/08/30 03:33:51;;;;;;;;;;;21.40;99.90;;;;;;5116991;28;19951;-69
2023/08/30 03:36:18;;;;;;;;;;;21.40;99.90;;;;;;5116375;28;20319;-70
2023/08/30 03:38:44;;;;;;;;;;;21.40;99.90;;;;;;5116335;28;19930;-70
2023/08/30 03:41:14;;;;;;;;;;;21.50;99.90;;;;;;5116898;28;20366;-71
2023/08/30 03:43:40;;;;;;;;;;;21.50;99.90;;;;;;5098040;28;20345;-70
2023/08/30 03:46:07;;;;;;;;;;;21.50;99.90;;;;;;5116445;28;19997;-70
2023/08/30 03:48:33;;;;;;;;;;;21.50;99.90;;;;;;5116526;28;19908;-70
2023/08/30 03:50:58;;;;;;;;;;;21.50;99.90;;;;;;5116027;28;19907;-70
2023/08/30 03:53:25;;;;;;;;;;;21.50;99.90;;;;;;5115997;28;20371;-71
2023/08/30 03:55:52;;;;;;;;;;;21.40;99.90;;;;;;5116134;28;19922;-70
2023/08/30 03:58:19;;;;;;;;;;;21.50;99.90;;;;;;5097247;28;20393;-70
2023/08/30 04:00:44;;;;;;;;;;;21.40;99.90;;;;;;5116439;28;19908;-70
2023/08/30 04:03:10;;;;;;;;;;;21.50;99.90;;;;;;5116136;28;19912;-71
2023/08/30 04:05:40;;;;;;;;;;;21.40;99.90;;;;;;5115784;28;19961;-71
2023/08/30 04:08:06;;;;;;;;;;;21.40;99.90;;;;;;5097332;28;20376;-70
2023/08/30 04:10:36;;;;;;;;;;;21.40;99.90;;;;;;5115976;28;19908;-70
2023/08/30 04:13:02;;;;;;;;;;;21.30;99.90;;;;;;5115696;28;19908;-70
2023/08/30 04:15:28;;;;;;;;;;;21.40;99.90;;;;;;5097160;28;19908;-71
2023/08/30 04:17:54;;;;;;;;;;;21.30;99.90;;;;;;5115586;28;19915;-71
2023/08/30 04:20:21;;;;;;;;;;;21.30;99.90;;;;;;5097089;28;19971;-71
2023/08/30 04:22:47;;;;;;;;;;;21.40;99.90;;;;;;5096878;28;20465;-70
2023/08/30 04:25:13;;;;;;;;;;;21.30;99.90;;;;;;5115356;28;19932;-72
2023/08/30 04:27:39;;;;;;;;;;;21.40;99.90;;;;;;5097087;28;19908;-70
2023/08/30 04:30:05;;;;;;;;;;;21.40;99.90;;;;;;5115296;28;19996;-71
2023/08/30 04:32:32;;;;;;;;;;;21.40;99.90;;;;;;5115305;28;19918;-71
2023/08/30 04:34:58;;;;;;;;;;;21.30;99.90;;;;;;5115139;28;19908;-70
2023/08/30 04:37:25;;;;;;;;;;;21.40;99.90;;;;;;5096693;28;20371;-70
2023/08/30 04:39:51;;;;;;;;;;;21.40;99.90;;;;;;5114985;28;19919;-71
2023/08/30 04:42:20;;;;;;;;;;;21.40;99.90;;;;;;5096569;28;20307;-71
2023/08/30 04:44:46;;;;;;;;;;;21.30;99.90;;;;;;5115175;28;20360;-70
2023/08/30 04:47:15;;;;;;;;;;;21.50;99.90;;;;;;5115497;28;19919;-72
2023/08/30 04:49:44;;;;;;;;;;;21.50;99.90;;;;;;5096427;28;19993;-69
2023/08/30 04:52:10;;;;;;;;;;;21.50;99.90;;;;;;5114674;28;19923;-70
2023/08/30 04:54:36;;;;;;;;;;;21.50;99.90;;;;;;5115318;28;19998;-71
2023/08/30 04:57:02;;;;;;;;;;;21.50;99.90;;;;;;5114609;28;19930;-70
2023/08/30 04:59:28;;;;;;;;;;;21.40;99.90;;;;;;5096131;28;19915;-70
2023/08/30 05:01:55;;;;;;;;;;;21.50;99.90;;;;;;5096194;28;19955;-70
2023/08/30 05:04:21;;;;;;;;;;;21.40;99.90;;;;;;5095832;28;19919;-69
2023/08/30 05:06:46;;;;;;;;;;;21.50;99.90;;;;;;5114467;28;19908;-71
2023/08/30 05:09:12;;;;;;;;;;;21.50;99.90;;;;;;5114437;28;19931;-71
2023/08/30 05:11:38;;;;;;;;;;;21.60;99.90;;;;;;5114333;28;20042;-70
2023/08/30 05:14:04;;;;;;;;;;;21.70;99.90;;;;;;5114082;28;20360;-70
2023/08/30 05:16:30;;;;;;;;;;;21.70;99.90;;;;;;5114093;28;19907;-70
2023/08/30 05:18:56;;;;;;;;;;;21.70;99.90;;;;;;5113935;28;19907;-69
2023/08/30 05:21:21;;;;;;;;;;;21.80;99.90;;;;;;5113502;28;19908;-70
2023/08/30 05:23:47;;;;;;;;;;;21.90;99.90;;;;;;5095110;28;19908;-71
2023/08/30 05:26:13;;;;;;;;;;;22.70;99.90;;;;;;5095505;28;19963;-70
2023/08/30 05:28:39;;;;;;;;;;;24.10;99.90;;;;;;5095811;28;20359;-70
2023/08/30 05:31:06;;;;;;;;;;;25.50;99.90;;;;;;5095751;28;20009;-71
2023/08/30 05:33:32;;;;;;;;;;;26.10;99.90;;;;;;5114529;28;19908;-71
2023/08/30 05:35:58;;;;;;;;;;;27.10;99.90;;;;;;5113879;28;19922;-71
2023/08/30 05:38:23;;;;;;;;;;;27.60;99.90;;;;;;5113888;28;19912;-70
2023/08/30 05:40:49;;;;;;;;;;;28.30;99.90;;;;;;5095758;28;19960;-71
2023/08/30 05:43:19;;;;;;;;;;;28.60;99.90;;;;;;5113964;28;20256;-72
2023/08/30 05:45:45;;;;;;;;;;;28.80;99.90;;;;;;5094302;28;20360;-70
2023/08/30 05:48:12;;;;;;;;;;;29.10;99.90;;;;;;5114376;28;20061;-71
2023/08/30 05:50:39;;;;;;;;;;;29.60;99.90;;;;;;5113730;28;20343;-71
2023/08/30 05:53:05;;;;;;;;;;;30.30;99.90;;;;;;5113809;28;19908;-71
2023/08/30 05:55:30;;;;;;;;;;;31.70;99.90;;;;;;5117802;28;20251;-71
2023/08/30 05:57:59;;;;;;;;;;;32.60;99.90;;;;;;5099608;28;19908;-72
2023/08/30 06:00:26;;;;;;;;;;;32.50;99.90;;;;;;5099255;28;19907;-71
2023/08/30 06:02:53;;;;;;;;;;;33.30;99.90;;;;;;5118327;28;19908;-69
2023/08/30 06:05:19;;;;;;;;;;;32.70;99.90;;;;;;5099481;28;19916;-71
2023/08/30 06:07:44;;;;;;;;;;;34.00;99.90;;;;;;5117852;28;19953;-71
2023/08/30 06:10:10;;;;;;;;;;;34.20;99.10;;;;;;5117678;28;19911;-70
2023/08/30 06:12:40;;;;;;;;;;;34.40;98.30;;;;;;5118266;28;19998;-73
2023/08/30 06:15:08;;;;;;;;;;;34.20;97.90;;;;;;5098127;28;20332;-70
2023/08/30 06:17:34;;;;;;;;;;;34.40;98.20;;;;;;5117842;28;19998;-70
2023/08/30 06:20:00;;;;;;;;;;;35.40;97.20;;;;;;5117382;28;19947;-71
2023/08/30 06:22:25;;;;;;;;;;;33.70;97.40;;;;;;5117451;28;19967;-71
2023/08/30 06:24:51;;;;;;;;;;;33.50;97.60;;;;;;5117561;28;19912;-71
2023/08/30 06:27:19;;;;;;;;;;;34.00;98.10;;;;;;5117548;28;19912;-71
2023/08/30 06:29:46;;;;;;;;;;;35.10;96.60;;;;;;5098730;28;19915;-70
2023/08/30 06:32:11;;;;;;;;;;;35.70;96.20;;;;;;5117869;28;19908;-71
2023/08/30 06:34:37;;;;;;;;;;;35.60;96.50;;;;;;5117796;28;19969;-71
2023/08/30 06:37:03;;;;;;;;;;;36.10;95.80;;;;;;5117043;28;19920;-72
2023/08/30 06:39:34;;;;;;;;;;;37.10;94.50;;;;;;5117387;28;19912;-71
2023/08/30 06:42:00;;;;;;;;;;;37.70;93.60;;;;;;5098892;28;20367;-71
2023/08/30 06:44:27;;;;;;;;;;;38.40;92.90;;;;;;5098545;28;19911;-70
2023/08/30 06:46:52;;;;;;;;;;;38.00;92.20;;;;;;5116946;28;19918;-69
2023/08/30 06:49:18;;;;;;;;;;;37.00;92.80;;;;;;5117373;28;20356;-71
2023/08/30 06:51:44;;;;;;;;;;;36.00;93.30;;;;;;5116959;28;19908;-72
2023/08/30 06:54:10;;;;;;;;;;;37.30;93.20;;;;;;5116786;28;19961;-71
2023/08/30 06:56:39;;;;;;;;;;;38.40;92.40;;;;;;5117291;28;19915;-71
2023/08/30 06:59:05;;;;;;;;;;;38.20;91.50;;;;;;5098407;28;19915;-72
2023/08/30 07:01:31;;;;;;;;;;;37.40;92.40;;;;;;5098373;28;19911;-70
2023/08/30 07:03:57;;;;;;;;;;;38.40;91.60;;;;;;5117080;28;19915;-71
2023/08/30 07:06:23;;;;;;;;;;;37.60;91.80;;;;;;5115381;28;19937;-71
2023/08/30 07:08:49;;;;;;;;;;;37.30;91.80;;;;;;5116363;28;20006;-71
2023/08/30 07:11:18;;;;;;;;;;;37.80;91.70;;;;;;5116536;28;19993;-72
2023/08/30 07:13:44;;;;;;;;;;;37.80;91.80;;;;;;5097843;28;19908;-69
2023/08/30 07:16:10;;;;;;;;;;;36.60;92.00;;;;;;5116675;28;19908;-71
2023/08/30 07:18:35;;;;;;;;;;;36.70;92.70;;;;;;5116297;28;19922;-71
2023/08/30 07:21:02;;;;;;;;;;;37.20;92.70;;;;;;5116285;28;19996;-69
2023/08/30 07:23:28;;;;;;;;;;;36.70;92.90;;;;;;5116196;28;19915;-70
2023/08/30 07:26:01;;;;;;;;;;;37.60;92.60;;;;;;5115977;28;19923;-74
2023/08/30 07:28:32;;;;;;;;;;;35.50;93.90;;;;;;5115824;28;19907;-71
2023/08/30 07:31:02;;;;;;;;;;;35.10;94.30;;;;;;5095710;28;20002;-72
2023/08/30 07:33:28;;;;;;;;;;;35.40;94.20;;;;;;5075541;28;19961;-77
2023/08/30 07:35:54;;;;;;;;;;;35.00;94.80;;;;;;5075063;28;19921;-73
2023/08/30 07:38:21;;;;;;;;;;;34.00;95.40;;;;;;5077389;28;19923;-74
2023/08/30 07:40:47;;;;;;;;;;;33.30;96.40;;;;;;5057239;28;19913;-73
2023/08/30 07:43:13;;;;;;;;;;;33.20;96.70;;;;;;5093965;28;19938;-74
2023/08/30 07:45:39;;;;;;;;;;;32.90;96.70;;;;;;5093077;28;19916;-75
2023/08/30 07:48:05;;;;;;;;;;;32.50;97.20;;;;;;5075151;28;19970;-74
2023/08/30 07:50:31;;;;;;;;;;;32.60;97.40;;;;;;5074356;28;19912;-74
2023/08/30 07:52:56;;;;;;;;;;;32.40;97.20;;;;;;5100830;28;19998;-77
2023/08/30 07:55:22;;;;;;;;;;;32.60;97.50;;;;;;5115502;28;20212;-70
2023/08/30 07:57:48;;;;;;;;;;;32.30;98.40;;;;;;5115661;28;19994;-69
2023/08/30 08:00:14;;;;;;;;;;;32.30;98.80;;;;;;5115444;28;19915;-68
2023/08/30 08:02:40;;;;;;;;;;;32.50;98.90;;;;;;5096809;28;19907;-70
2023/08/30 08:05:06;;;;;;;;;;;31.90;99.60;;;;;;5115114;28;19918;-71
2023/08/30 08:07:32;;;;;;;;;;;32.50;99.30;;;;;;5115753;28;19991;-69
2023/08/30 08:09:58;;;;;;;;;;;32.50;99.30;;;;;;5115124;28;19915;-70
2023/08/30 08:12:24;;;;;;;;;;;32.60;99.20;;;;;;5115174;28;19915;-68
2023/08/30 08:14:50;;;;;;;;;;;32.60;99.20;;;;;;5115918;28;19952;-76
2023/08/30 08:17:16;;;;;;;;;;;32.60;99.40;;;;;;5096410;28;20372;-74
2023/08/30 08:19:43;;;;;;;;;;;32.60;98.90;;;;;;5115464;28;19998;-82
2023/08/30 08:22:09;;;;;;;;;;;32.00;98.60;;;;;;5115447;28;19908;-83
2023/08/30 08:24:35;;;;;;;;;;;31.40;98.60;;;;;;5115774;28;20366;-81
2023/08/30 08:27:01;;;;;;;;;;;31.20;99.40;;;;;;5097100;28;19916;-82
2023/08/30 08:29:27;;;;;;;;;;;31.00;99.80;;;;;;5115323;28;19969;-80
2023/08/30 08:31:54;;;;;;;;;;;31.20;99.90;;;;;;5096799;28;19994;-73
2023/08/30 08:34:21;;;;;;;;;;;31.50;99.90;;;;;;5114746;28;20275;-71
2023/08/30 08:36:48;;;;;;;;;;;31.50;99.90;;;;;;5096107;28;19919;-73
2023/08/30 08:39:14;;;;;;;;;;;31.40;99.90;;;;;;5096483;28;19912;-72
2023/08/30 08:41:41;;;;;;;;;;;31.50;99.90;;;;;;5114252;28;19970;-73
2023/08/30 08:44:08;;;;;;;;;;;31.50;99.90;;;;;;5114130;28;19970;-71
2023/08/30 08:46:40;;;;;;;;;;;31.70;99.90;;;;;;5113809;28;20283;-76
2023/08/30 08:49:10;;;;;;;;;;;31.80;99.90;;;;;;5114435;28;20297;-74
2023/08/30 08:51:36;;;;;;;;;;;31.60;99.90;;;;;;5114014;28;19958;-75
2023/08/30 08:54:03;;;;;;;;;;;31.40;99.90;;;;;;5096035;28;19912;-76
2023/08/30 08:56:30;;;;;;;;;;;31.20;99.90;;;;;;5114773;28;20364;-75
2023/08/30 08:58:56;;;;;;;;;;;30.90;99.90;;;;;;5095510;28;20004;-75
2023/08/30 09:01:23;;;;;;;;;;;31.00;99.90;;;;;;5113876;28;20412;-75
2023/08/30 09:03:50;;;;;;;;;;;31.10;99.90;;;;;;5114064;28;20276;-81
2023/08/30 09:06:16;;;;;;;;;;;31.00;99.90;;;;;;5114121;28;19915;-85
2023/08/30 09:08:41;;;;;;;;;;;30.80;99.90;;;;;;5095966;28;19912;-86
2023/08/30 09:11:07;;;;;;;;;;;30.50;99.90;;;;;;5096198;28;19914;-85
2023/08/30 09:13:33;;;;;;;;;;;30.70;99.90;;;;;;5114386;28;19915;-87
2023/08/30 09:15:59;;;;;;;;;;;30.40;99.90;;;;;;5096322;28;20244;-87
2023/08/30 09:18:28;;;;;;;;;;;30.40;99.90;;;;;;5096022;28;19982;-84
2023/08/30 09:21:07;;;;;;;;;;;29.70;99.90;;;;;;5095325;28;19953;-84
2023/08/30 09:24:08;;;;;;;;;;;29.80;99.90;;;;;;5095365;28;19908;-84
2023/08/30 09:26:38;;;;;;;;;;;30.10;99.90;;;;;;5116293;28;20248;-83
2023/08/30 09:29:05;;;;;;;;;;;30.20;99.90;;;;;;5113848;28;19912;-83
2023/08/30 09:31:38;;;;;;;;;;;30.50;99.90;;;;;;5095596;28;19915;-84
2023/08/30 09:34:04;;;;;;;;;;;30.20;99.90;;;;;;5095585;28;19954;-84
2023/08/30 09:36:51;;;;;;;;;;;30.20;99.90;;;;;;5099215;28;19984;-84
2023/08/30 09:39:16;;;;;;;;;;;30.10;99.90;;;;;;5094514;28;19917;-85
2023/08/30 09:41:43;;;;;;;;;;;30.30;99.90;;;;;;5077418;28;19912;-87
2023/08/30 09:44:10;;;;;;;;;;;30.20;99.90;;;;;;5082572;28;19959;-92
2023/08/30 09:46:52;;;;;;;;;;;29.80;99.90;;;;;;5095911;28;20360;-88
2023/08/30 09:49:21;;;;;;;;;;;29.70;99.90;;;;;;5075926;28;20386;-84
2023/08/30 09:51:48;;;;;;;;;;;29.70;99.90;;;;;;5075374;28;19912;-85
2023/08/30 09:54:15;;;;;;;;;;;29.40;99.90;;;;;;5112466;28;19907;-83
2023/08/30 09:56:42;;;;;;;;;;;29.30;99.90;;;;;;5096149;28;19911;-85
2023/08/30 09:59:10;;;;;;;;;;;29.30;99.90;;;;;;5114173;28;19907;-85
2023/08/30 10:01:37;;;;;;;;;;;29.30;99.90;;;;;;5113670;28;19908;-84
2023/08/30 10:04:03;;;;;;;;;;;29.20;99.90;;;;;;5113647;28;19930;-79
2023/08/30 10:06:30;;;;;;;;;;;29.00;99.90;;;;;;5113090;28;19922;-78
2023/08/30 10:08:56;;;;;;;;;;;28.70;99.90;;;;;;5113521;28;19908;-78
2023/08/30 10:11:23;;;;;;;;;;;28.80;99.90;;;;;;5095172;28;19912;-79
2023/08/30 10:13:51;;;;;;;;;;;28.40;99.90;;;;;;5113816;28;19908;-76
2023/08/30 10:16:20;;;;;;;;;;;28.60;99.90;;;;;;5113788;28;19907;-78
2023/08/30 10:18:48;;;;;;;;;;;28.70;99.90;;;;;;5095142;28;19916;-76
2023/08/30 10:21:15;;;;;;;;;;;28.90;99.90;;;;;;5113296;28;19912;-77
2023/08/30 10:23:41;;;;;;;;;;;29.00;99.90;;;;;;5113502;28;19908;-76
2023/08/30 10:26:07;;;;;;;;;;;29.30;99.90;;;;;;5113196;28;19922;-77
2023/08/30 10:28:34;;;;;;;;;;;29.40;99.90;;;;;;5113299;28;19911;-75
2023/08/30 10:31:00;;;;;;;;;;;29.40;99.90;;;;;;5113196;28;19908;-76
2023/08/30 10:33:26;;;;;;;;;;;29.30;99.90;;;;;;5081401;28;19915;-76
2023/08/30 10:35:53;;;;;;;;;;;29.50;99.90;;;;;;5092269;28;19916;-75
2023/08/30 10:38:29;;;;;;;;;;;29.50;99.90;;;;;;5093412;28;19945;-77
2023/08/30 10:40:55;;;;;;;;;;;29.60;99.90;;;;;;5076196;28;19908;-73
2023/08/30 10:43:28;;;;;;;;;;;29.30;99.90;;;;;;5097380;28;20311;-69
2023/08/30 10:46:01;;;;;;;;;;;29.20;99.90;;;;;;5096939;28;20255;-72
2023/08/30 10:48:37;;;;;;;;;;;28.90;99.90;;;;;;5097049;28;19916;-71
2023/08/30 10:51:04;;;;;;;;;;;28.60;99.90;;;;;;5077672;28;19999;-70
2023/08/30 10:53:30;;;;;;;;;;;28.50;99.90;;;;;;5109235;28;19999;-70
2023/08/30 10:56:11;;;;;;;;;;;28.50;99.90;;;;;;5116894;28;19908;-71
2023/08/30 10:58:44;;;;;;;;;;;28.40;99.90;;;;;;5083249;28;20268;-71
2023/08/30 11:01:12;;;;;;;;;;;28.70;99.90;;;;;;5096694;28;20414;-70
2023/08/30 11:03:40;;;;;;;;;;;28.60;99.90;;;;;;5096150;28;19916;-71
2023/08/30 11:06:06;;;;;;;;;;;28.80;99.90;;;;;;5096332;28;20066;-70
2023/08/30 11:08:31;;;;;;;;;;;28.90;99.90;;;;;;5096273;28;19947;-70
2023/08/30 11:11:03;;;;;;;;;;;28.90;99.90;;;;;;5096325;28;20022;-70
2023/08/30 11:13:29;;;;;;;;;;;28.80;99.90;;;;;;5095827;28;20337;-70
2023/08/30 11:16:00;;;;;;;;;;;28.70;99.90;;;;;;5096447;28;19908;-71
2023/08/30 11:18:30;;;;;;;;;;;28.50;99.90;;;;;;5078074;28;19908;-71
2023/08/30 11:21:03;;;;;;;;;;;28.70;99.90;;;;;;5077616;28;19912;-71
2023/08/30 11:23:29;;;;;;;;;;;28.80;99.90;;;;;;5101160;28;19958;-70
2023/08/30 11:25:54;;;;;;;;;;;29.10;99.90;;;;;;5116260;28;19961;-70
2023/08/30 11:28:24;;;;;;;;;;;29.00;99.90;;;;;;5115639;28;19907;-70
2023/08/30 11:30:53;;;;;;;;;;;29.10;99.90;;;;;;5115501;28;19927;-69
2023/08/30 11:33:19;;;;;;;;;;;29.20;99.90;;;;;;5097048;28;19908;-70
2023/08/30 11:35:45;;;;;;;;;;;29.30;99.90;;;;;;5115425;28;20275;-70
2023/08/30 11:38:13;;;;;;;;;;;29.30;99.90;;;;;;5116117;28;19931;-71
2023/08/30 11:40:39;;;;;;;;;;;29.20;99.90;;;;;;5115687;28;19952;-71
2023/08/30 11:43:06;;;;;;;;;;;29.30;99.90;;;;;;5116133;28;19908;-71
2023/08/30 11:45:33;;;;;;;;;;;29.40;99.90;;;;;;5115481;28;20382;-69
2023/08/30 11:47:59;;;;;;;;;;;29.40;99.90;;;;;;5115723;28;19990;-71
2023/08/30 11:50:26;;;;;;;;;;;29.30;99.90;;;;;;5115311;28;20319;-71
2023/08/30 11:52:52;;;;;;;;;;;29.20;99.90;;;;;;5115189;28;19912;-70
2023/08/30 11:55:18;;;;;;;;;;;29.20;99.90;;;;;;5115600;28;19908;-70
2023/08/30 11:57:48;;;;;;;;;;;28.90;99.90;;;;;;5115535;28;20312;-70
2023/08/30 12:00:14;;;;;;;;;;;28.80;99.90;;;;;;5115637;28;19952;-69
2023/08/30 12:02:40;;;;;;;;;;;29.00;99.90;;;;;;5114852;28;19988;-69
2023/08/30 12:05:11;;;;;;;;;;;28.90;99.90;;;;;;5114818;28;20252;-69
2023/08/30 12:07:37;;;;;;;;;;;28.90;99.90;;;;;;5115206;28;19911;-70
2023/08/30 12:10:07;;;;;;;;;;;29.30;99.90;;;;;;5105225;28;19923;-70
2023/08/30 12:12:33;;;;;;;;;;;29.20;99.90;;;;;;5094080;28;19908;-71
2023/08/30 12:14:59;;;;;;;;;;;29.10;99.90;;;;;;5093502;28;19908;-70
2023/08/30 12:17:25;;;;;;;;;;;29.20;99.90;;;;;;5095071;28;19918;-71
2023/08/30 12:19:58;;;;;;;;;;;29.60;99.90;;;;;;5085118;28;19916;-71
2023/08/30 12:22:25;;;;;;;;;;;29.60;99.90;;;;;;5082604;28;20429;-69
2023/08/30 12:24:51;;;;;;;;;;;29.40;99.90;;;;;;5104762;28;19912;-71
2023/08/30 12:27:16;;;;;;;;;;;29.50;99.90;;;;;;5087020;28;19954;-69
2023/08/30 12:29:42;;;;;;;;;;;29.70;99.90;;;;;;5094554;28;20338;-68
2023/08/30 12:32:08;;;;;;;;;;;29.40;99.90;;;;;;5094101;28;19908;-70
2023/08/30 12:34:35;;;;;;;;;;;29.40;99.90;;;;;;5075901;28;19920;-71
2023/08/30 12:37:02;;;;;;;;;;;29.30;99.90;;;;;;5093764;28;19927;-69
2023/08/30 12:39:28;;;;;;;;;;;28.90;99.90;;;;;;5094766;28;19966;-70
2023/08/30 12:41:54;;;;;;;;;;;29.00;99.90;;;;;;5068856;28;20008;-70
2023/08/30 12:44:20;;;;;;;;;;;29.20;99.90;;;;;;5074467;28;20426;-68
2023/08/30 12:46:45;;;;;;;;;;;29.30;99.90;;;;;;5073751;28;19916;-69
2023/08/30 12:49:11;;;;;;;;;;;29.10;99.90;;;;;;5089859;28;19912;-71
2023/08/30 12:51:37;;;;;;;;;;;29.30;99.90;;;;;;5093794;28;20372;-72
2023/08/30 12:54:03;;;;;;;;;;;29.30;99.90;;;;;;5111500;28;20262;-70
2023/08/30 12:56:29;;;;;;;;;;;29.30;99.90;;;;;;5095944;28;19907;-70
2023/08/30 12:58:54;;;;;;;;;;;29.60;99.90;;;;;;5114289;28;20002;-70
2023/08/30 13:01:20;;;;;;;;;;;29.20;99.90;;;;;;5114275;28;19908;-68
2023/08/30 13:03:47;;;;;;;;;;;29.10;99.90;;;;;;5113980;28;19907;-69
2023/08/30 13:06:12;;;;;;;;;;;29.20;99.90;;;;;;5113977;28;19920;-69
2023/08/30 13:08:38;;;;;;;;;;;29.20;99.90;;;;;;5095677;28;19953;-69
2023/08/30 13:11:04;;;;;;;;;;;29.50;99.90;;;;;;5114075;28;19919;-70
2023/08/30 13:13:30;;;;;;;;;;;29.70;99.90;;;;;;5114071;28;19914;-71
2023/08/30 13:15:55;;;;;;;;;;;29.50;99.90;;;;;;5095633;28;20304;-70
2023/08/30 13:18:21;;;;;;;;;;;29.60;99.90;;;;;;5114568;28;19912;-70
2023/08/30 13:20:47;;;;;;;;;;;29.30;99.90;;;;;;5113716;28;19960;-68
2023/08/30 13:23:13;;;;;;;;;;;29.60;99.90;;;;;;5108702;28;20102;-69
2023/08/30 13:25:39;;;;;;;;;;;29.40;99.90;;;;;;5089536;28;19916;-69
2023/08/30 13:28:05;;;;;;;;;;;29.70;99.90;;;;;;5082306;28;20371;-69
2023/08/30 13:30:31;;;;;;;;;;;29.60;99.90;;;;;;5090885;28;19908;-69
2023/08/30 13:32:57;;;;;;;;;;;29.60;99.90;;;;;;5093098;28;20010;-71
2023/08/30 13:35:23;;;;;;;;;;;29.50;99.90;;;;;;5092631;28;20387;-69
2023/08/30 13:37:50;;;;;;;;;;;29.30;99.90;;;;;;5090197;28;19962;-70
2023/08/30 13:40:16;;;;;;;;;;;29.20;99.90;;;;;;5092344;28;20455;-70
2023/08/30 13:42:41;;;;;;;;;;;29.20;99.90;;;;;;5085519;28;20010;-69
2023/08/30 13:45:09;;;;;;;;;;;29.30;99.90;;;;;;5084621;28;19927;-71
2023/08/30 13:47:35;;;;;;;;;;;29.30;99.90;;;;;;5080621;28;19970;-70
2023/08/30 13:50:01;;;;;;;;;;;29.10;99.90;;;;;;5083439;28;19912;-68
2023/08/30 13:52:29;;;;;;;;;;;29.20;99.90;;;;;;5087974;28;19908;-69
2023/08/30 13:54:55;;;;;;;;;;;29.20;99.90;;;;;;5065318;28;19985;-70
2023/08/30 13:57:20;;;;;;;;;;;29.30;99.90;;;;;;5074393;28;19908;-70
2023/08/30 13:59:47;;;;;;;;;;;29.20;99.90;;;;;;5073011;28;19915;-70
2023/08/30 14:02:13;;;;;;;;;;;28.90;99.90;;;;;;5072936;28;20008;-70
2023/08/30 14:04:39;;;;;;;;;;;29.10;99.90;;;;;;5072931;28;19955;-70
2023/08/30 14:07:04;;;;;;;;;;;29.10;99.90;;;;;;5072820;28;19919;-69
2023/08/30 14:09:30;;;;;;;;;;;28.90;99.90;;;;;;5073146;28;19955;-69
2023/08/30 14:11:56;;;;;;;;;;;28.70;99.90;;;;;;5088375;28;19912;-71
2023/08/30 14:14:22;;;;;;;;;;;28.90;99.90;;;;;;5073435;28;19913;-69
2023/08/30 14:16:48;;;;;;;;;;;29.00;99.90;;;;;;5076740;28;19924;-69